sensor_id;sensor_type;location;lat;lon;timestamp;P1;durP1;ratioP1;P2;durP2;ratioP2
73684;SDS011;61985;51.070;14.064;2023-04-06T00:02:06;7.50;;;3.55;;
73684;SDS011;61985;51.070;14.064;2023-04-06T00:04:32;7.45;;;3.25;;
73684;SDS011;61985;51.070;14.064;2023-04-06T00:06:57;8.85;;;3.85;;
73684;SDS011;61985;51.070;14.064;2023-04-06T00:09:22;7.50;;;3.42;;
73684;SDS011;61985;51.070;14.064;2023-04-06T00:11:48;5.90;;;3.40;;
73684;SDS011;61985;51.070;14.064;2023-04-06T00:14:13;8.23;;;3.95;;
73684;SDS011;61985;51.070;14.064;2023-04-06T00:16:39;8.45;;;3.85;;
73684;SDS011;61985;51.070;14.064;2023-04-06T00:19:04;8.10;;;3.78;;
73684;SDS011;61985;51.070;14.064;2023-04-06T00:21:29;7.18;;;3.50;;
73684;SDS011;61985;51.070;14.064;2023-04-06T00:23:56;7.85;;;3.92;;
73684;SDS011;61985;51.070;14.064;2023-04-06T00:26:21;7.53;;;3.42;;
73684;SDS011;61985;51.070;14.064;2023-04-06T00:28:46;6.65;;;3.13;;
73684;SDS011;61985;51.070;14.064;2023-04-06T00:31:12;8.10;;;3.60;;
73684;SDS011;61985;51.070;14.064;2023-04-06T00:33:37;8.57;;;4.20;;
73684;SDS011;61985;51.070;14.064;2023-04-06T00:36:02;9.30;;;4.22;;
73684;SDS011;61985;51.070;14.064;2023-04-06T00:38:28;11.07;;;4.47;;
73684;SDS011;61985;51.070;14.064;2023-04-06T00:40:53;8.40;;;4.75;;
73684;SDS011;61985;51.070;14.064;2023-04-06T00:43:18;8.25;;;4.20;;
73684;SDS011;61985;51.070;14.064;2023-04-06T00:45:44;9.43;;;4.28;;
73684;SDS011;61985;51.070;14.064;2023-04-06T00:48:09;8.55;;;4.38;;
73684;SDS011;61985;51.070;14.064;2023-04-06T00:50:35;8.25;;;4.22;;
73684;SDS011;61985;51.070;14.064;2023-04-06T00:53:00;9.93;;;4.57;;
73684;SDS011;61985;51.070;14.064;2023-04-06T00:55:29;9.10;;;4.00;;
73684;SDS011;61985;51.070;14.064;2023-04-06T00:57:55;12.05;;;4.53;;
73684;SDS011;61985;51.070;14.064;2023-04-06T01:00:23;7.88;;;4.13;;
73684;SDS011;61985;51.070;14.064;2023-04-06T01:02:48;7.38;;;3.78;;
73684;SDS011;61985;51.070;14.064;2023-04-06T01:05:14;7.65;;;3.92;;
73684;SDS011;61985;51.070;14.064;2023-04-06T01:07:39;9.43;;;4.63;;
73684;SDS011;61985;51.070;14.064;2023-04-06T01:10:05;8.60;;;3.92;;
73684;SDS011;61985;51.070;14.064;2023-04-06T01:12:31;6.75;;;3.53;;
73684;SDS011;61985;51.070;14.064;2023-04-06T01:14:56;8.20;;;4.20;;
73684;SDS011;61985;51.070;14.064;2023-04-06T01:17:22;11.35;;;3.88;;
73684;SDS011;61985;51.070;14.064;2023-04-06T01:19:47;7.50;;;3.83;;
73684;SDS011;61985;51.070;14.064;2023-04-06T01:22:16;8.85;;;4.03;;
73684;SDS011;61985;51.070;14.064;2023-04-06T01:24:42;9.53;;;3.93;;
73684;SDS011;61985;51.070;14.064;2023-04-06T01:27:07;10.57;;;4.20;;
73684;SDS011;61985;51.070;14.064;2023-04-06T01:29:32;7.43;;;4.07;;
73684;SDS011;61985;51.070;14.064;2023-04-06T01:31:58;8.32;;;4.03;;
73684;SDS011;61985;51.070;14.064;2023-04-06T01:34:23;8.03;;;3.83;;
73684;SDS011;61985;51.070;14.064;2023-04-06T01:36:48;7.75;;;3.85;;
73684;SDS011;61985;51.070;14.064;2023-04-06T01:39:14;7.20;;;3.63;;
73684;SDS011;61985;51.070;14.064;2023-04-06T01:41:39;7.83;;;3.60;;
73684;SDS011;61985;51.070;14.064;2023-04-06T01:44:04;7.07;;;3.70;;
73684;SDS011;61985;51.070;14.064;2023-04-06T01:46:30;6.88;;;3.90;;
73684;SDS011;61985;51.070;14.064;2023-04-06T01:48:55;6.68;;;3.38;;
73684;SDS011;61985;51.070;14.064;2023-04-06T01:51:21;7.68;;;3.30;;
73684;SDS011;61985;51.070;14.064;2023-04-06T01:53:46;6.03;;;3.22;;
73684;SDS011;61985;51.070;14.064;2023-04-06T01:56:13;8.10;;;3.28;;
73684;SDS011;61985;51.070;14.064;2023-04-06T01:58:38;9.00;;;4.00;;
73684;SDS011;61985;51.070;14.064;2023-04-06T02:01:03;7.60;;;3.70;;
73684;SDS011;61985;51.070;14.064;2023-04-06T02:03:29;7.43;;;4.03;;
73684;SDS011;61985;51.070;14.064;2023-04-06T02:05:55;6.63;;;3.45;;
73684;SDS011;61985;51.070;14.064;2023-04-06T02:08:20;9.75;;;3.67;;
73684;SDS011;61985;51.070;14.064;2023-04-06T02:10:46;7.00;;;3.57;;
73684;SDS011;61985;51.070;14.064;2023-04-06T02:13:11;8.50;;;4.13;;
73684;SDS011;61985;51.070;14.064;2023-04-06T02:15:36;8.43;;;4.35;;
73684;SDS011;61985;51.070;14.064;2023-04-06T02:18:02;9.30;;;4.45;;
73684;SDS011;61985;51.070;14.064;2023-04-06T02:20:27;9.97;;;4.17;;
73684;SDS011;61985;51.070;14.064;2023-04-06T02:22:52;8.13;;;4.22;;
73684;SDS011;61985;51.070;14.064;2023-04-06T02:25:18;7.95;;;3.92;;
73684;SDS011;61985;51.070;14.064;2023-04-06T02:27:43;9.90;;;4.33;;
73684;SDS011;61985;51.070;14.064;2023-04-06T02:30:08;7.75;;;3.67;;
73684;SDS011;61985;51.070;14.064;2023-04-06T02:32:34;8.93;;;4.65;;
73684;SDS011;61985;51.070;14.064;2023-04-06T02:35:00;7.23;;;4.13;;
73684;SDS011;61985;51.070;14.064;2023-04-06T02:37:25;12.10;;;4.70;;
73684;SDS011;61985;51.070;14.064;2023-04-06T02:39:50;9.03;;;4.07;;
73684;SDS011;61985;51.070;14.064;2023-04-06T02:42:16;8.18;;;4.53;;
73684;SDS011;61985;51.070;14.064;2023-04-06T02:44:41;12.97;;;5.03;;
73684;SDS011;61985;51.070;14.064;2023-04-06T02:47:07;12.20;;;4.45;;
73684;SDS011;61985;51.070;14.064;2023-04-06T02:49:33;12.30;;;4.95;;
73684;SDS011;61985;51.070;14.064;2023-04-06T02:51:58;9.85;;;4.85;;
73684;SDS011;61985;51.070;14.064;2023-04-06T02:54:23;8.55;;;4.97;;
73684;SDS011;61985;51.070;14.064;2023-04-06T02:56:49;9.98;;;4.63;;
73684;SDS011;61985;51.070;14.064;2023-04-06T02:59:14;11.30;;;5.20;;
73684;SDS011;61985;51.070;14.064;2023-04-06T03:01:40;12.10;;;5.10;;
73684;SDS011;61985;51.070;14.064;2023-04-06T03:04:05;9.52;;;4.40;;
73684;SDS011;61985;51.070;14.064;2023-04-06T03:06:30;9.73;;;4.85;;
73684;SDS011;61985;51.070;14.064;2023-04-06T03:08:56;8.80;;;4.77;;
73684;SDS011;61985;51.070;14.064;2023-04-06T03:11:21;11.13;;;5.63;;
73684;SDS011;61985;51.070;14.064;2023-04-06T03:13:47;11.60;;;5.07;;
73684;SDS011;61985;51.070;14.064;2023-04-06T03:16:12;11.33;;;5.37;;
73684;SDS011;61985;51.070;14.064;2023-04-06T03:18:37;13.93;;;5.53;;
73684;SDS011;61985;51.070;14.064;2023-04-06T03:21:03;12.43;;;4.77;;
73684;SDS011;61985;51.070;14.064;2023-04-06T03:23:28;10.10;;;5.00;;
73684;SDS011;61985;51.070;14.064;2023-04-06T03:25:53;11.03;;;5.43;;
73684;SDS011;61985;51.070;14.064;2023-04-06T03:28:19;11.93;;;5.47;;
73684;SDS011;61985;51.070;14.064;2023-04-06T03:30:45;10.60;;;4.83;;
73684;SDS011;61985;51.070;14.064;2023-04-06T03:33:10;11.13;;;5.00;;
73684;SDS011;61985;51.070;14.064;2023-04-06T03:35:35;10.20;;;5.10;;
73684;SDS011;61985;51.070;14.064;2023-04-06T03:38:01;11.67;;;5.43;;
73684;SDS011;61985;51.070;14.064;2023-04-06T03:40:27;7.43;;;4.20;;
73684;SDS011;61985;51.070;14.064;2023-04-06T03:42:53;9.37;;;4.60;;
73684;SDS011;61985;51.070;14.064;2023-04-06T03:45:18;9.13;;;4.47;;
73684;SDS011;61985;51.070;14.064;2023-04-06T03:47:43;10.43;;;5.13;;
73684;SDS011;61985;51.070;14.064;2023-04-06T03:50:09;12.03;;;4.97;;
73684;SDS011;61985;51.070;14.064;2023-04-06T03:52:35;17.73;;;6.30;;
73684;SDS011;61985;51.070;14.064;2023-04-06T03:55:01;19.33;;;6.90;;
73684;SDS011;61985;51.070;14.064;2023-04-06T03:57:26;12.30;;;6.03;;
73684;SDS011;61985;51.070;14.064;2023-04-06T03:59:51;12.13;;;5.27;;
73684;SDS011;61985;51.070;14.064;2023-04-06T04:02:17;11.60;;;4.53;;
73684;SDS011;61985;51.070;14.064;2023-04-06T04:04:42;8.73;;;4.87;;
73684;SDS011;61985;51.070;14.064;2023-04-06T04:07:07;9.43;;;4.67;;
73684;SDS011;61985;51.070;14.064;2023-04-06T04:09:33;9.00;;;4.60;;
73684;SDS011;61985;51.070;14.064;2023-04-06T04:11:58;7.20;;;3.87;;
73684;SDS011;61985;51.070;14.064;2023-04-06T04:14:23;9.73;;;5.03;;
73684;SDS011;61985;51.070;14.064;2023-04-06T04:16:49;10.33;;;4.77;;
73684;SDS011;61985;51.070;14.064;2023-04-06T04:19:14;8.47;;;4.27;;
73684;SDS011;61985;51.070;14.064;2023-04-06T04:21:43;15.20;;;4.53;;
73684;SDS011;61985;51.070;14.064;2023-04-06T04:24:10;9.23;;;4.13;;
73684;SDS011;61985;51.070;14.064;2023-04-06T04:26:35;9.37;;;4.00;;
73684;SDS011;61985;51.070;14.064;2023-04-06T04:29:00;10.80;;;3.90;;
73684;SDS011;61985;51.070;14.064;2023-04-06T04:31:26;7.10;;;3.70;;
73684;SDS011;61985;51.070;14.064;2023-04-06T04:33:51;6.73;;;3.47;;
73684;SDS011;61985;51.070;14.064;2023-04-06T04:36:16;9.47;;;4.43;;
73684;SDS011;61985;51.070;14.064;2023-04-06T04:38:42;9.20;;;3.90;;
73684;SDS011;61985;51.070;14.064;2023-04-06T04:41:07;9.57;;;4.83;;
73684;SDS011;61985;51.070;14.064;2023-04-06T04:43:32;10.80;;;4.37;;
73684;SDS011;61985;51.070;14.064;2023-04-06T04:45:58;40.50;;;17.83;;
73684;SDS011;61985;51.070;14.064;2023-04-06T04:48:24;11.50;;;5.17;;
73684;SDS011;61985;51.070;14.064;2023-04-06T04:50:50;9.77;;;5.53;;
73684;SDS011;61985;51.070;14.064;2023-04-06T04:53:15;9.30;;;4.60;;
73684;SDS011;61985;51.070;14.064;2023-04-06T04:55:40;10.67;;;3.90;;
73684;SDS011;61985;51.070;14.064;2023-04-06T04:58:06;11.40;;;4.87;;
73684;SDS011;61985;51.070;14.064;2023-04-06T05:00:33;10.50;;;5.10;;
73684;SDS011;61985;51.070;14.064;2023-04-06T05:02:59;9.90;;;4.40;;
73684;SDS011;61985;51.070;14.064;2023-04-06T05:05:25;9.07;;;5.30;;
73684;SDS011;61985;51.070;14.064;2023-04-06T05:07:53;10.00;;;5.00;;
73684;SDS011;61985;51.070;14.064;2023-04-06T05:10:18;11.07;;;5.07;;
73684;SDS011;61985;51.070;14.064;2023-04-06T05:12:44;9.77;;;4.93;;
73684;SDS011;61985;51.070;14.064;2023-04-06T05:15:09;8.40;;;4.70;;
73684;SDS011;61985;51.070;14.064;2023-04-06T05:17:35;10.80;;;4.70;;
73684;SDS011;61985;51.070;14.064;2023-04-06T05:20:00;11.30;;;4.57;;
73684;SDS011;61985;51.070;14.064;2023-04-06T05:22:25;9.63;;;4.60;;
73684;SDS011;61985;51.070;14.064;2023-04-06T05:24:51;9.57;;;4.73;;
73684;SDS011;61985;51.070;14.064;2023-04-06T05:27:16;12.20;;;5.47;;
73684;SDS011;61985;51.070;14.064;2023-04-06T05:29:42;17.67;;;8.73;;
73684;SDS011;61985;51.070;14.064;2023-04-06T05:32:07;19.27;;;10.75;;
73684;SDS011;61985;51.070;14.064;2023-04-06T05:34:33;21.67;;;12.57;;
73684;SDS011;61985;51.070;14.064;2023-04-06T05:36:58;11.15;;;5.70;;
73684;SDS011;61985;51.070;14.064;2023-04-06T05:39:23;10.98;;;6.03;;
73684;SDS011;61985;51.070;14.064;2023-04-06T05:41:49;15.18;;;7.80;;
73684;SDS011;61985;51.070;14.064;2023-04-06T05:44:14;10.80;;;5.57;;
73684;SDS011;61985;51.070;14.064;2023-04-06T05:46:39;9.90;;;4.90;;
73684;SDS011;61985;51.070;14.064;2023-04-06T05:49:05;9.90;;;6.03;;
73684;SDS011;61985;51.070;14.064;2023-04-06T05:51:30;12.70;;;6.22;;
73684;SDS011;61985;51.070;14.064;2023-04-06T20:04:55;8.80;;;5.20;;
73684;SDS011;61985;51.070;14.064;2023-04-06T20:07:20;8.63;;;4.95;;
73684;SDS011;61985;51.070;14.064;2023-04-06T20:09:46;9.70;;;5.80;;
73684;SDS011;61985;51.070;14.064;2023-04-06T20:12:11;10.38;;;5.85;;
73684;SDS011;61985;51.070;14.064;2023-04-06T20:14:37;11.05;;;5.72;;
73684;SDS011;61985;51.070;14.064;2023-04-06T20:17:02;9.90;;;5.50;;
73684;SDS011;61985;51.070;14.064;2023-04-06T20:19:28;10.93;;;5.78;;
73684;SDS011;61985;51.070;14.064;2023-04-06T20:21:53;9.70;;;5.53;;
73684;SDS011;61985;51.070;14.064;2023-04-06T20:24:19;12.77;;;6.47;;
73684;SDS011;61985;51.070;14.064;2023-04-06T20:26:45;10.57;;;6.20;;
73684;SDS011;61985;51.070;14.064;2023-04-06T20:29:10;10.40;;;6.60;;
73684;SDS011;61985;51.070;14.064;2023-04-06T20:31:35;11.25;;;6.75;;
73684;SDS011;61985;51.070;14.064;2023-04-06T20:34:01;11.07;;;6.00;;
73684;SDS011;61985;51.070;14.064;2023-04-06T20:36:29;12.02;;;6.82;;
73684;SDS011;61985;51.070;14.064;2023-04-06T20:38:55;11.73;;;6.93;;
73684;SDS011;61985;51.070;14.064;2023-04-06T20:41:20;16.00;;;7.45;;
73684;SDS011;61985;51.070;14.064;2023-04-06T20:43:46;13.35;;;7.05;;
73684;SDS011;61985;51.070;14.064;2023-04-06T20:46:14;14.15;;;6.95;;
73684;SDS011;61985;51.070;14.064;2023-04-06T20:48:42;11.23;;;6.85;;
73684;SDS011;61985;51.070;14.064;2023-04-06T20:51:07;11.80;;;6.45;;
73684;SDS011;61985;51.070;14.064;2023-04-06T20:53:41;14.25;;;7.88;;
73684;SDS011;61985;51.070;14.064;2023-04-06T20:56:06;14.68;;;8.02;;
73684;SDS011;61985;51.070;14.064;2023-04-06T20:58:34;13.13;;;7.53;;
73684;SDS011;61985;51.070;14.064;2023-04-06T21:01:00;16.17;;;8.20;;
73684;SDS011;61985;51.070;14.064;2023-04-06T21:03:27;16.95;;;7.82;;
73684;SDS011;61985;51.070;14.064;2023-04-06T21:05:53;14.15;;;8.25;;
73684;SDS011;61985;51.070;14.064;2023-04-06T21:08:32;14.02;;;7.82;;
73684;SDS011;61985;51.070;14.064;2023-04-06T21:10:58;15.23;;;7.93;;
73684;SDS011;61985;51.070;14.064;2023-04-06T21:13:24;13.32;;;7.65;;
73684;SDS011;61985;51.070;14.064;2023-04-06T21:15:54;12.52;;;7.22;;
73684;SDS011;61985;51.070;14.064;2023-04-06T21:18:21;13.20;;;7.45;;
73684;SDS011;61985;51.070;14.064;2023-04-06T21:20:49;14.00;;;7.45;;
73684;SDS011;61985;51.070;14.064;2023-04-06T21:23:16;14.52;;;8.10;;
73684;SDS011;61985;51.070;14.064;2023-04-06T21:25:43;17.30;;;9.90;;
73684;SDS011;61985;51.070;14.064;2023-04-06T21:28:08;14.65;;;8.23;;
73684;SDS011;61985;51.070;14.064;2023-04-06T21:30:36;15.43;;;8.27;;
73684;SDS011;61985;51.070;14.064;2023-04-06T21:33:02;14.27;;;8.27;;
73684;SDS011;61985;51.070;14.064;2023-04-06T21:35:28;14.43;;;8.85;;
73684;SDS011;61985;51.070;14.064;2023-04-06T21:37:54;17.70;;;9.07;;
73684;SDS011;61985;51.070;14.064;2023-04-06T21:40:21;18.13;;;9.00;;
73684;SDS011;61985;51.070;14.064;2023-04-06T21:42:47;16.40;;;8.57;;
73684;SDS011;61985;51.070;14.064;2023-04-06T21:45:13;16.98;;;9.15;;
73684;SDS011;61985;51.070;14.064;2023-04-06T21:47:40;17.17;;;9.00;;
73684;SDS011;61985;51.070;14.064;2023-04-06T21:50:07;18.73;;;10.18;;
73684;SDS011;61985;51.070;14.064;2023-04-06T21:52:33;16.05;;;9.43;;
73684;SDS011;61985;51.070;14.064;2023-04-06T21:54:58;17.40;;;9.60;;
73684;SDS011;61985;51.070;14.064;2023-04-06T21:57:25;16.20;;;9.70;;
73684;SDS011;61985;51.070;14.064;2023-04-06T21:59:51;19.35;;;9.95;;
73684;SDS011;61985;51.070;14.064;2023-04-06T22:02:17;19.67;;;9.40;;
73684;SDS011;61985;51.070;14.064;2023-04-06T22:04:42;17.52;;;9.25;;
73684;SDS011;61985;51.070;14.064;2023-04-06T22:07:09;18.05;;;9.68;;
73684;SDS011;61985;51.070;14.064;2023-04-06T22:09:36;17.58;;;9.48;;
73684;SDS011;61985;51.070;14.064;2023-04-06T22:12:02;17.48;;;9.30;;
73684;SDS011;61985;51.070;14.064;2023-04-06T22:14:31;25.58;;;13.02;;
73684;SDS011;61985;51.070;14.064;2023-04-06T22:17:00;16.63;;;8.98;;
73684;SDS011;61985;51.070;14.064;2023-04-06T22:19:29;16.85;;;9.13;;
73684;SDS011;61985;51.070;14.064;2023-04-06T22:21:56;20.75;;;8.38;;
73684;SDS011;61985;51.070;14.064;2023-04-06T22:24:25;15.50;;;8.18;;
73684;SDS011;61985;51.070;14.064;2023-04-06T22:26:54;13.05;;;7.38;;
73684;SDS011;61985;51.070;14.064;2023-04-06T22:29:24;13.27;;;7.82;;
73684;SDS011;61985;51.070;14.064;2023-04-06T22:31:55;13.60;;;7.70;;
73684;SDS011;61985;51.070;14.064;2023-04-06T22:34:22;13.18;;;7.45;;
73684;SDS011;61985;51.070;14.064;2023-04-06T22:36:49;16.00;;;7.30;;
73684;SDS011;61985;51.070;14.064;2023-04-06T22:39:18;13.32;;;7.70;;
73684;SDS011;61985;51.070;14.064;2023-04-06T22:41:45;14.18;;;7.95;;
73684;SDS011;61985;51.070;14.064;2023-04-06T22:44:13;12.38;;;6.90;;
73684;SDS011;61985;51.070;14.064;2023-04-06T22:46:41;13.68;;;7.93;;
73684;SDS011;61985;51.070;14.064;2023-04-06T22:49:07;15.02;;;8.65;;
73684;SDS011;61985;51.070;14.064;2023-04-06T22:51:33;13.90;;;7.43;;
73684;SDS011;61985;51.070;14.064;2023-04-06T22:54:01;14.40;;;7.50;;
73684;SDS011;61985;51.070;14.064;2023-04-06T22:56:30;14.13;;;8.65;;
73684;SDS011;61985;51.070;14.064;2023-04-06T22:58:56;15.48;;;8.32;;
73684;SDS011;61985;51.070;14.064;2023-04-06T23:01:25;15.48;;;8.43;;
73684;SDS011;61985;51.070;14.064;2023-04-06T23:03:54;15.35;;;8.13;;
73684;SDS011;61985;51.070;14.064;2023-04-06T23:06:21;15.48;;;9.10;;
73684;SDS011;61985;51.070;14.064;2023-04-06T23:08:53;15.65;;;8.85;;
73684;SDS011;61985;51.070;14.064;2023-04-06T23:11:20;12.65;;;7.60;;
73684;SDS011;61985;51.070;14.064;2023-04-06T23:13:50;10.85;;;7.35;;
73684;SDS011;61985;51.070;14.064;2023-04-06T23:16:17;13.27;;;7.25;;
73684;SDS011;61985;51.070;14.064;2023-04-06T23:18:55;15.10;;;8.20;;
73684;SDS011;61985;51.070;14.064;2023-04-06T23:23:52;11.20;;;6.35;;
73684;SDS011;61985;51.070;14.064;2023-04-06T23:26:18;12.48;;;6.68;;
73684;SDS011;61985;51.070;14.064;2023-04-06T23:28:44;12.32;;;7.18;;
73684;SDS011;61985;51.070;14.064;2023-04-06T23:31:10;13.93;;;7.03;;
73684;SDS011;61985;51.070;14.064;2023-04-06T23:33:36;15.05;;;7.47;;
73684;SDS011;61985;51.070;14.064;2023-04-06T23:36:02;13.60;;;7.65;;
73684;SDS011;61985;51.070;14.064;2023-04-06T23:38:28;14.00;;;7.60;;
73684;SDS011;61985;51.070;14.064;2023-04-06T23:40:53;14.45;;;7.63;;
73684;SDS011;61985;51.070;14.064;2023-04-06T23:43:19;14.48;;;7.28;;
73684;SDS011;61985;51.070;14.064;2023-04-06T23:45:45;14.55;;;8.20;;
73684;SDS011;61985;51.070;14.064;2023-04-06T23:48:11;14.85;;;8.07;;
73684;SDS011;61985;51.070;14.064;2023-04-06T23:50:37;15.52;;;7.70;;
73684;SDS011;61985;51.070;14.064;2023-04-06T23:53:03;13.95;;;7.75;;
73684;SDS011;61985;51.070;14.064;2023-04-06T23:55:29;14.85;;;7.63;;
73684;SDS011;61985;51.070;14.064;2023-04-06T23:57:56;13.85;;;7.60;;
